createdAt,value
2019-04-29T00:01:50.595Z,86.92
2019-04-29T00:04:23.275Z,87.24
2019-04-29T00:06:55.992Z,86.97
2019-04-29T00:09:31.010Z,87.07
2019-04-29T00:12:03.200Z,87.05
2019-04-29T00:14:37.769Z,87.22
2019-04-29T00:17:13.225Z,87.20
2019-04-29T00:19:50.150Z,87.20
2019-04-29T00:22:22.750Z,87.18
2019-04-29T00:24:55.235Z,87.07
2019-04-29T00:27:28.275Z,86.99
2019-04-29T00:30:00.950Z,87.67
2019-04-29T00:32:33.880Z,87.64
2019-04-29T00:35:08.172Z,87.64
2019-04-29T00:37:55.525Z,87.79
2019-04-29T00:40:30.565Z,87.67
2019-04-29T00:43:20.895Z,87.45
2019-04-29T00:45:53.640Z,87.36
2019-04-29T00:48:26.310Z,87.48
2019-04-29T00:50:59.092Z,87.46
2019-04-29T00:53:31.704Z,87.80
2019-04-29T00:56:05.175Z,87.95
2019-04-29T00:58:37.585Z,88.05
2019-04-29T01:01:14.006Z,87.92
2019-04-29T01:03:46.684Z,88.15
2019-04-29T01:06:19.475Z,88.17
2019-04-29T01:08:51.940Z,88.14
2019-04-29T01:11:24.725Z,87.97
2019-04-29T01:13:57.376Z,88.06
2019-04-29T01:16:30.096Z,88.02
2019-04-29T01:19:03.969Z,88.38
2019-04-29T01:21:36.801Z,88.14
2019-04-29T01:24:09.537Z,88.21
2019-04-29T01:26:49.910Z,88.11
2019-04-29T01:29:24.214Z,88.47
2019-04-29T01:31:57.422Z,88.51
2019-04-29T01:34:31.640Z,88.57
2019-04-29T01:37:04.255Z,88.28
2019-04-29T01:39:43.960Z,88.40
2019-04-29T01:42:18.286Z,88.22
2019-04-29T01:44:50.835Z,88.27
2019-04-29T01:47:23.424Z,88.49
2019-04-29T01:49:56.060Z,88.68
2019-04-29T01:52:28.599Z,88.78
2019-04-29T01:55:01.241Z,88.66
2019-04-29T01:57:33.714Z,88.56
2019-04-29T02:00:12.244Z,88.32
2019-04-29T02:02:43.975Z,88.31
2019-04-29T02:05:16.490Z,88.44
2019-04-29T02:07:48.955Z,88.30
2019-04-29T02:10:23.272Z,88.45
2019-04-29T02:12:55.922Z,88.15
2019-04-29T02:15:28.600Z,88.40
2019-04-29T02:18:01.106Z,87.95
2019-04-29T02:20:34.946Z,87.94
2019-04-29T02:23:07.300Z,88.05
2019-04-29T02:25:44.682Z,87.78
2019-04-29T02:28:17.296Z,88.14
2019-04-29T02:30:53.245Z,88.10
2019-04-29T02:33:25.888Z,87.71
2019-04-29T02:35:58.826Z,88.17
2019-04-29T02:38:34.374Z,88.03
2019-04-29T02:41:27.181Z,87.92
2019-04-29T02:44:01.396Z,88.22
2019-04-29T02:46:34.132Z,88.12
2019-04-29T02:49:06.956Z,88.20
2019-04-29T02:51:44.300Z,87.81
2019-04-29T02:54:16.970Z,88.31
2019-04-29T02:57:02.933Z,88.23
2019-04-29T02:59:55.545Z,88.45
2019-04-29T03:02:30.082Z,88.56
2019-04-29T03:05:04.797Z,88.36
2019-04-29T03:07:37.472Z,88.52
2019-04-29T03:10:10.376Z,88.24
2019-04-29T03:12:43.006Z,88.53
2019-04-29T03:15:19.970Z,88.49
2019-04-29T03:17:53.741Z,88.44
2019-04-29T03:20:28.055Z,88.58
2019-04-29T03:23:14.246Z,88.47
2019-04-29T03:25:47.031Z,88.48
2019-04-29T03:28:19.751Z,88.63
2019-04-29T03:30:52.370Z,88.54
2019-04-29T03:33:25.125Z,88.63
2019-04-29T03:35:58.060Z,88.87
2019-04-29T03:38:31.625Z,89.12
2019-04-29T03:41:04.319Z,89.00
2019-04-29T03:43:37.001Z,89.26
2019-04-29T03:46:09.607Z,88.95
2019-04-29T03:48:42.464Z,88.84
2019-04-29T03:51:14.939Z,88.90
2019-04-29T03:53:47.500Z,89.36
2019-04-29T03:56:20.091Z,89.13
2019-04-29T03:58:52.847Z,88.95
2019-04-29T04:01:27.012Z,88.85
2019-04-29T04:04:03.977Z,88.97
2019-04-29T04:06:38.130Z,88.98
2019-04-29T04:09:19.575Z,89.07
2019-04-29T04:11:52.170Z,88.85
2019-04-29T04:14:24.911Z,89.06
2019-04-29T04:16:59.255Z,89.23
2019-04-29T04:19:33.635Z,89.33
2019-04-29T04:22:06.185Z,89.07
2019-04-29T04:24:39.031Z,89.29
2019-04-29T04:27:11.616Z,89.43
2019-04-29T04:29:44.310Z,88.97
2019-04-29T04:32:17.156Z,88.98
2019-04-29T04:34:50.173Z,88.88
2019-04-29T04:37:23.028Z,88.66
2019-04-29T04:39:56.836Z,88.82
2019-04-29T04:42:30.096Z,88.73
2019-04-29T04:45:02.998Z,88.58
2019-04-29T04:47:35.689Z,88.47
2019-04-29T04:50:09.035Z,88.74
2019-04-29T04:52:41.590Z,88.54
2019-04-29T04:55:14.720Z,88.31
2019-04-29T04:57:47.585Z,88.33
2019-04-29T05:00:22.478Z,88.34
2019-04-29T05:02:55.975Z,88.04
2019-04-29T05:05:28.524Z,87.74
2019-04-29T05:08:01.298Z,87.46
2019-04-29T05:10:34.010Z,86.98
2019-04-29T05:13:06.470Z,87.14
2019-04-29T05:15:39.441Z,87.26
2019-04-29T05:18:12.157Z,87.18
2019-04-29T05:20:44.924Z,87.28
2019-04-29T05:23:17.475Z,86.73
2019-04-29T05:25:50.155Z,86.56
2019-04-29T05:28:22.775Z,86.06
2019-04-29T05:30:55.515Z,85.76
2019-04-29T05:33:27.918Z,85.51
2019-04-29T05:36:07.700Z,84.88
2019-04-29T05:38:41.790Z,85.26
2019-04-29T05:41:14.680Z,84.61
2019-04-29T05:43:49.179Z,84.59
2019-04-29T05:46:27.381Z,84.68
2019-04-29T05:49:02.496Z,84.85
2019-04-29T05:51:35.909Z,85.01
2019-04-29T05:54:10.019Z,85.16
2019-04-29T05:56:42.842Z,85.34
2019-04-29T05:59:15.419Z,85.06
2019-04-29T06:01:48.980Z,85.52
2019-04-29T06:04:21.585Z,85.56
2019-04-29T06:06:54.345Z,85.27
2019-04-29T06:09:26.925Z,85.20
2019-04-29T06:11:59.633Z,85.66
2019-04-29T06:14:32.498Z,85.37
2019-04-29T06:17:07.692Z,85.50
2019-04-29T06:19:41.041Z,85.35
2019-04-29T06:22:13.920Z,85.33
2019-04-29T06:24:46.779Z,85.28
2019-04-29T06:27:19.552Z,85.42
2019-04-29T06:29:52.333Z,85.79
2019-04-29T06:32:26.387Z,85.99
2019-04-29T06:34:59.669Z,85.83
2019-04-29T06:37:32.320Z,86.30
2019-04-29T06:40:06.770Z,85.74
2019-04-29T06:42:39.612Z,85.26
2019-04-29T06:45:12.369Z,84.97
2019-04-29T06:47:45.195Z,85.57
2019-04-29T06:50:18.694Z,85.18
2019-04-29T06:52:51.584Z,85.13
2019-04-29T06:55:24.336Z,85.30
2019-04-29T06:57:57.025Z,84.92
2019-04-29T07:00:29.640Z,84.83
2019-04-29T07:03:02.504Z,84.25
2019-04-29T07:05:35.105Z,83.62
2019-04-29T07:08:08.014Z,83.47
2019-04-29T07:10:40.336Z,83.53
2019-04-29T07:13:12.875Z,82.76
2019-04-29T07:15:47.758Z,83.05
2019-04-29T07:18:19.394Z,82.18
2019-04-29T07:20:51.875Z,82.36
2019-04-29T07:23:24.455Z,82.87
2019-04-29T07:25:57.174Z,82.80
2019-04-29T07:28:29.924Z,82.44
2019-04-29T07:31:03.151Z,82.40
2019-04-29T07:33:35.835Z,82.72
2019-04-29T07:36:11.275Z,82.22
2019-04-29T07:38:46.528Z,82.11
2019-04-29T07:41:19.030Z,81.24
2019-04-29T07:43:50.275Z,81.45
2019-04-29T07:46:24.176Z,82.00
2019-04-29T07:49:01.791Z,81.64
2019-04-29T07:51:30.635Z,80.63
2019-04-29T07:54:03.154Z,79.71
2019-04-29T07:56:37.866Z,80.14
2019-04-29T07:59:11.325Z,79.45
2019-04-29T08:01:44.074Z,78.70
2019-04-29T08:04:16.554Z,78.48
2019-04-29T08:06:50.097Z,78.70
2019-04-29T08:09:22.516Z,78.15
2019-04-29T08:11:55.215Z,79.48
2019-04-29T08:14:28.377Z,78.27
2019-04-29T08:17:00.955Z,78.10
2019-04-29T08:19:33.374Z,77.53
2019-04-29T08:22:05.835Z,77.13
2019-04-29T08:24:38.375Z,77.69
2019-04-29T08:27:11.016Z,77.45
2019-04-29T08:29:45.055Z,77.55
2019-04-29T08:32:17.415Z,76.54
2019-04-29T08:34:53.598Z,76.78
2019-04-29T08:37:24.993Z,75.87
2019-04-29T08:40:14.750Z,75.56
2019-04-29T08:42:46.675Z,76.05
2019-04-29T08:45:34.804Z,76.54
2019-04-29T08:48:08.005Z,75.61
2019-04-29T08:50:40.385Z,74.98
2019-04-29T08:53:12.986Z,73.63
2019-04-29T08:55:45.385Z,73.45
2019-04-29T08:58:17.868Z,73.92
2019-04-29T09:00:51.453Z,72.95
2019-04-29T09:03:24.505Z,72.75
2019-04-29T09:06:05.005Z,71.97
2019-04-29T09:08:32.839Z,70.66
2019-04-29T09:11:08.121Z,70.72
2019-04-29T09:13:39.607Z,68.82
2019-04-29T09:16:12.085Z,67.93
2019-04-29T09:18:44.590Z,67.59
2019-04-29T09:21:17.024Z,66.36
2019-04-29T09:23:50.645Z,66.03
2019-04-29T09:26:32.485Z,65.26
2019-04-29T09:29:23.145Z,65.04
2019-04-29T09:31:55.705Z,65.00
2019-04-29T09:34:28.286Z,63.55
2019-04-29T09:37:00.872Z,64.81
2019-04-29T09:39:42.889Z,65.03
2019-04-29T09:42:22.685Z,65.14
2019-04-29T09:44:59.845Z,63.29
2019-04-29T09:47:33.925Z,62.24
2019-04-29T09:50:10.229Z,62.86
2019-04-29T09:52:42.705Z,62.83
2019-04-29T09:55:16.999Z,62.13
2019-04-29T09:57:49.625Z,62.03
2019-04-29T10:00:26.172Z,59.58
2019-04-29T10:03:05.966Z,59.34
2019-04-29T10:05:48.385Z,60.09
2019-04-29T10:08:20.905Z,59.02
2019-04-29T10:10:53.367Z,58.86
2019-04-29T10:13:25.826Z,58.16
2019-04-29T10:16:11.786Z,57.78
2019-04-29T10:18:50.166Z,56.86
2019-04-29T10:21:23.449Z,56.03
2019-04-29T10:23:56.625Z,56.35
2019-04-29T10:26:28.966Z,55.46
2019-04-29T10:29:05.968Z,55.00
2019-04-29T10:31:38.445Z,54.50
2019-04-29T10:34:12.765Z,53.86
2019-04-29T10:36:45.265Z,53.77
2019-04-29T10:39:35.465Z,54.15
2019-04-29T10:42:09.525Z,54.76
2019-04-29T10:44:59.610Z,53.95
2019-04-29T10:47:36.425Z,53.03
2019-04-29T10:50:15.428Z,52.55
2019-04-29T10:52:49.525Z,52.12
2019-04-29T10:55:25.591Z,49.62
2019-04-29T10:57:56.925Z,49.11
2019-04-29T11:00:57.316Z,49.46
2019-04-29T11:03:27.284Z,49.30
2019-04-29T11:06:01.958Z,48.59
2019-04-29T11:08:46.345Z,48.43
2019-04-29T11:11:23.227Z,49.48
2019-04-29T11:13:57.674Z,47.80
2019-04-29T11:16:45.307Z,46.71
2019-04-29T11:19:05.456Z,47.83
2019-04-29T11:21:38.968Z,47.60
2019-04-29T11:24:15.945Z,48.54
2019-04-29T11:27:11.177Z,48.28
2019-04-29T11:29:35.806Z,46.87
2019-04-29T11:32:08.985Z,47.96
2019-04-29T11:34:43.144Z,46.93
2019-04-29T11:37:17.939Z,46.86
2019-04-29T11:39:51.395Z,47.15
2019-04-29T11:42:24.385Z,45.68
2019-04-29T11:45:01.443Z,46.51
2019-04-29T11:47:33.245Z,44.97
2019-04-29T11:50:11.845Z,46.59
2019-04-29T11:52:43.904Z,46.92
2019-04-29T11:55:18.493Z,45.95
2019-04-29T11:57:57.964Z,46.03
2019-04-29T12:00:33.178Z,46.37
2019-04-29T12:03:14.354Z,46.04
2019-04-29T12:05:49.444Z,45.51
2019-04-29T12:08:21.965Z,45.92
2019-04-29T12:11:06.686Z,45.22
2019-04-29T12:13:30.305Z,44.74
2019-04-29T12:16:04.868Z,44.88
2019-04-29T12:18:53.905Z,44.79
2019-04-29T12:21:31.169Z,45.27
2019-04-29T12:24:04.305Z,45.49
2019-04-29T12:26:43.128Z,46.14
2019-04-29T12:29:13.624Z,46.87
2019-04-29T12:32:03.065Z,46.56
2019-04-29T12:34:53.275Z,46.02
2019-04-29T12:37:34.345Z,44.82
2019-04-29T12:40:24.987Z,44.98
2019-04-29T12:42:57.226Z,43.80
2019-04-29T12:45:32.054Z,43.33
2019-04-29T12:48:06.653Z,43.04
2019-04-29T12:50:39.086Z,41.92
2019-04-29T12:53:11.845Z,42.52
2019-04-29T12:55:49.460Z,39.74
2019-04-29T12:58:24.174Z,40.46
2019-04-29T13:01:01.160Z,38.98
2019-04-29T13:03:39.527Z,39.73
2019-04-29T13:06:38.798Z,39.18
2019-04-29T13:09:17.299Z,39.31
2019-04-29T13:11:48.328Z,38.82
2019-04-29T13:14:14.625Z,37.85
2019-04-29T13:16:55.805Z,39.52
2019-04-29T13:19:39.455Z,39.45
2019-04-29T13:22:15.516Z,39.57
2019-04-29T13:24:46.127Z,39.92
2019-04-29T13:27:20.756Z,39.40
2019-04-29T13:29:52.585Z,39.68
2019-04-29T13:32:29.861Z,39.60
2019-04-29T13:35:05.379Z,39.71
2019-04-29T13:37:35.805Z,38.99
2019-04-29T13:40:11.727Z,40.02
2019-04-29T13:42:48.491Z,39.35
2019-04-29T13:45:26.953Z,39.39
2019-04-29T13:48:07.111Z,39.04
2019-04-29T13:50:42.809Z,39.15
2019-04-29T13:53:16.572Z,38.07
2019-04-29T13:56:10.048Z,37.65
2019-04-29T13:58:27.168Z,38.02
2019-04-29T14:01:04.746Z,37.80
2019-04-29T14:03:41.978Z,38.14
2019-04-29T14:06:14.394Z,38.98
2019-04-29T14:08:48.005Z,38.85
2019-04-29T14:11:22.001Z,38.44
2019-04-29T14:13:54.786Z,38.50
2019-04-29T14:16:27.211Z,37.49
2019-04-29T14:18:59.611Z,38.23
2019-04-29T14:21:32.730Z,38.07
2019-04-29T14:24:05.370Z,36.70
2019-04-29T14:26:41.941Z,36.49
2019-04-29T14:29:11.550Z,36.74
2019-04-29T14:31:46.690Z,38.08
2019-04-29T14:34:21.302Z,38.59
2019-04-29T14:36:57.497Z,37.96
2019-04-29T14:39:37.264Z,38.09
2019-04-29T14:42:05.067Z,38.74
2019-04-29T14:44:39.085Z,37.85
2019-04-29T14:47:29.399Z,37.91
2019-04-29T14:50:03.591Z,38.03
2019-04-29T14:52:36.350Z,37.29
2019-04-29T14:55:09.410Z,37.07
2019-04-29T14:57:42.981Z,37.63
2019-04-29T15:00:23.407Z,37.21
2019-04-29T15:03:00.612Z,37.71
2019-04-29T15:05:32.766Z,37.09
2019-04-29T15:08:05.287Z,37.37
2019-04-29T15:10:38.584Z,37.48
2019-04-29T15:13:21.177Z,37.02
2019-04-29T15:16:09.680Z,37.81
2019-04-29T15:18:48.649Z,37.60
2019-04-29T15:21:32.984Z,37.78
2019-04-29T15:24:05.260Z,38.04
2019-04-29T15:26:37.620Z,38.18
2019-04-29T15:29:10.060Z,37.98
2019-04-29T15:31:47.162Z,37.38
2019-04-29T15:34:16.880Z,37.72
2019-04-29T15:36:49.279Z,37.07
2019-04-29T15:39:24.889Z,36.95
2019-04-29T15:41:56.363Z,37.32
2019-04-29T15:44:28.914Z,37.01
2019-04-29T15:47:01.522Z,37.27
2019-04-29T15:49:33.940Z,37.59
2019-04-29T15:52:06.400Z,38.09
2019-04-29T15:54:39.121Z,38.07
2019-04-29T15:57:15.481Z,38.78
2019-04-29T15:59:49.072Z,38.78
2019-04-29T16:02:20.060Z,37.94
2019-04-29T16:04:54.182Z,38.48
2019-04-29T16:07:37.220Z,38.99
2019-04-29T16:10:23.900Z,38.63
2019-04-29T16:13:00.780Z,39.03
2019-04-29T16:15:33.460Z,38.82
2019-04-29T16:18:10.570Z,38.65
2019-04-29T16:20:40.040Z,38.79
2019-04-29T16:23:12.620Z,39.01
2019-04-29T16:25:46.197Z,39.13
2019-04-29T16:28:24.337Z,39.55
2019-04-29T16:30:53.378Z,39.38
2019-04-29T16:33:26.921Z,38.71
2019-04-29T16:36:04.783Z,38.43
2019-04-29T16:38:33.945Z,38.06
2019-04-29T16:41:21.245Z,37.12
2019-04-29T16:43:55.465Z,37.37
2019-04-29T16:49:08.919Z,37.62
2019-04-29T16:51:41.573Z,36.91
2019-04-29T16:54:20.554Z,36.91
2019-04-29T16:56:50.002Z,36.79
2019-04-29T16:59:23.730Z,37.26
2019-04-29T17:01:56.600Z,37.39
2019-04-29T17:04:29.298Z,37.46
2019-04-29T17:07:12.356Z,38.23
2019-04-29T17:09:37.720Z,38.09
2019-04-29T17:12:11.110Z,38.26
2019-04-29T17:17:28.339Z,38.69
2019-04-29T17:19:54.070Z,39.29
2019-04-29T17:22:27.682Z,38.72
2019-04-29T17:25:01.705Z,39.25
2019-04-29T17:27:42.079Z,39.54
2019-04-29T17:30:29.303Z,39.62
2019-04-29T17:33:10.023Z,39.96
2019-04-29T17:35:15.895Z,37.15
2019-04-29T17:35:17.482Z,38.84
2019-04-29T17:35:47.614Z,39.64
2019-04-29T17:38:17.335Z,40.13
2019-04-29T17:40:51.087Z,40.45
2019-04-29T17:43:24.005Z,40.37
2019-04-29T17:46:07.285Z,39.73
2019-04-29T17:48:53.216Z,40.52
2019-04-29T17:51:26.643Z,40.61
2019-04-29T17:54:05.230Z,40.80
2019-04-29T17:56:48.896Z,40.89
2019-04-29T17:59:29.670Z,41.27
2019-04-29T18:02:18.415Z,41.68
2019-04-29T18:04:57.264Z,42.11
2019-04-29T18:07:51.571Z,42.38
2019-04-29T18:10:24.348Z,42.76
2019-04-29T18:12:54.979Z,43.27
2019-04-29T18:15:40.205Z,43.48
2019-04-29T18:18:07.211Z,43.90
2019-04-29T18:20:42.484Z,44.31
2019-04-29T18:23:30.045Z,44.58
2019-04-29T18:26:04.841Z,44.88
2019-04-29T18:28:37.547Z,45.13
2019-04-29T18:31:11.845Z,45.27
2019-04-29T18:33:45.151Z,46.04
2019-04-29T18:36:23.714Z,46.15
2019-04-29T18:38:52.141Z,46.47
2019-04-29T18:41:28.554Z,46.72
2019-04-29T18:44:03.014Z,46.91
2019-04-29T18:46:35.179Z,47.35
2019-04-29T18:49:07.930Z,47.75
2019-04-29T18:51:40.295Z,47.86
2019-04-29T18:54:12.896Z,48.57
2019-04-29T18:56:45.678Z,48.77
2019-04-29T18:59:21.265Z,48.90
2019-04-29T19:01:52.841Z,49.25
2019-04-29T19:04:25.663Z,49.06
2019-04-29T19:07:02.085Z,48.79
2019-04-29T19:09:35.842Z,48.38
2019-04-29T19:12:09.150Z,48.33
2019-04-29T19:14:42.052Z,48.51
2019-04-29T19:17:16.160Z,48.87
2019-04-29T19:19:50.420Z,48.81
2019-04-29T19:22:23.280Z,48.91
2019-04-29T19:24:55.995Z,48.82
2019-04-29T19:27:30.569Z,48.83
2019-04-29T19:30:05.331Z,48.55
2019-04-29T19:32:39.080Z,48.81
2019-04-29T19:35:12.320Z,48.63
2019-04-29T19:37:45.426Z,48.28
2019-04-29T19:40:19.170Z,47.23
2019-04-29T19:42:51.855Z,46.92
2019-04-29T19:45:24.665Z,46.64
2019-04-29T19:47:57.480Z,47.09
2019-04-29T19:50:31.384Z,47.24
2019-04-29T19:53:04.909Z,47.49
2019-04-29T19:55:42.248Z,47.16
2019-04-29T19:58:14.725Z,46.50
2019-04-29T20:00:48.808Z,46.87
2019-04-29T20:03:25.133Z,47.09
2019-04-29T20:06:08.451Z,46.98
2019-04-29T20:08:50.883Z,47.25
2019-04-29T20:11:14.161Z,47.47
2019-04-29T20:13:46.804Z,46.94
2019-04-29T20:16:42.795Z,45.33
2019-04-29T20:19:16.455Z,46.06
2019-04-29T20:21:43.263Z,46.34
2019-04-29T20:24:17.909Z,45.37
2019-04-29T20:26:51.261Z,44.62
2019-04-29T20:29:28.603Z,44.73
2019-04-29T20:31:58.958Z,45.17
2019-04-29T20:34:32.256Z,44.19
2019-04-29T20:37:06.065Z,44.81
2019-04-29T20:39:39.341Z,44.76
2019-04-29T20:42:12.240Z,44.95
2019-04-29T20:44:48.817Z,44.26
2019-04-29T20:47:23.285Z,44.46
2019-04-29T20:49:54.444Z,44.90
2019-04-29T20:52:36.205Z,44.05
2019-04-29T20:55:09.752Z,44.06
2019-04-29T20:57:42.755Z,44.50
2019-04-29T21:00:20.236Z,44.38
2019-04-29T21:02:50.712Z,45.02
2019-04-29T21:05:24.924Z,45.29
2019-04-29T21:08:03.541Z,45.06
2019-04-29T21:10:32.429Z,45.35
2019-04-29T21:13:15.164Z,45.61
2019-04-29T21:16:00.162Z,45.71
2019-04-29T21:18:32.770Z,45.79
2019-04-29T21:21:07.880Z,46.18
2019-04-29T21:23:40.050Z,46.15
2019-04-29T21:26:12.569Z,46.53
2019-04-29T21:28:47.025Z,46.58
2019-04-29T21:31:20.164Z,47.63
2019-04-29T21:33:57.450Z,47.59
2019-04-29T21:36:30.966Z,47.62
2019-04-29T21:39:22.851Z,47.74
2019-04-29T21:41:58.649Z,47.05
2019-04-29T21:44:29.684Z,46.36
2019-04-29T21:47:06.628Z,47.28
2019-04-29T21:49:45.322Z,46.66
2019-04-29T21:52:12.064Z,46.47
2019-04-29T21:54:49.127Z,46.73
2019-04-29T21:57:23.899Z,46.79
2019-04-29T21:59:53.179Z,46.21
2019-04-29T22:02:26.159Z,45.91
2019-04-29T22:04:59.054Z,45.75
2019-04-29T22:07:31.534Z,45.50
2019-04-29T22:10:05.256Z,46.17
2019-04-29T22:12:38.976Z,46.32
2019-04-29T22:15:15.802Z,45.97
2019-04-29T22:17:56.431Z,45.94
2019-04-29T22:20:23.116Z,46.57
2019-04-29T22:22:56.002Z,46.45
2019-04-29T22:25:28.880Z,46.18
2019-04-29T22:28:01.760Z,46.75
2019-04-29T22:30:35.425Z,46.51
2019-04-29T22:33:08.714Z,46.67
2019-04-29T22:35:41.169Z,47.17
2019-04-29T22:38:16.267Z,47.12
2019-04-29T22:40:48.350Z,47.52
2019-04-29T22:43:40.323Z,47.56
2019-04-29T22:46:12.156Z,47.82
2019-04-29T22:48:48.420Z,47.84
2019-04-29T22:51:19.425Z,47.49
2019-04-29T22:53:52.085Z,47.62
2019-04-29T22:56:27.612Z,48.23
2019-04-29T22:58:59.221Z,48.43
2019-04-29T23:01:32.061Z,48.22
2019-04-29T23:04:05.277Z,48.90
2019-04-29T23:06:39.895Z,48.91
2019-04-29T23:09:13.194Z,49.20
2019-04-29T23:11:47.539Z,49.19
2019-04-29T23:14:20.059Z,49.30
2019-04-29T23:16:52.785Z,49.70
2019-04-29T23:19:26.011Z,49.55
2019-04-29T23:22:22.159Z,50.33
2019-04-29T23:25:01.752Z,50.35
2019-04-29T23:27:36.054Z,50.66
2019-04-29T23:30:13.694Z,50.64
2019-04-29T23:32:47.513Z,50.92
2019-04-29T23:35:19.412Z,51.10
2019-04-29T23:37:51.991Z,51.01
2019-04-29T23:40:24.785Z,51.32
2019-04-29T23:42:57.526Z,51.51
2019-04-29T23:45:30.235Z,51.59
2019-04-29T23:48:02.860Z,51.80
2019-04-29T23:50:36.013Z,51.76
2019-04-29T23:53:08.695Z,52.27
2019-04-29T23:55:41.365Z,52.46
2019-04-29T23:58:32.728Z,52.49
